Links Sitemap Venhuizerweer voor mobiel

AMSTERDAM SCHIPHOL:
Amsterdam Airport Schiphol, Netherlands (EHAM) 52-18N 004-46E -2M
Apr 15, 2021 - 06:55 PM EDT / 2021.04.15 2255 UTC
Wind: from the NNE (030 degrees) at 7 MPH (6 KT):0
Visibility: greater than 7 mile(s):0
Temperature: 37 F (3 C)
Dew Point: 30 F (-1 C)
Relative Humidity: 74%
Pressure (altimeter): 30.45 in. Hg (1031 hPa)
ob: EHAM 152255Z 03006KT CAVOK 03/M01 Q1031 NOSIG
cycle: 23
DEELEN:
Deelen, Netherlands (EHDL) 52-04N 005-53E 52M
Apr 15, 2021 - 06:55 PM EDT / 2021.04.15 2255 UTC
Wind: from the NNE (030 degrees) at 9 MPH (8 KT) (direction variable):0
Visibility: greater than 7 mile(s):0
Temperature: 35 F (2 C)
Windchill: 28 F (-2 C):1
Dew Point: 28 F (-2 C)
Relative Humidity: 74%
Pressure (altimeter): 30.42 in. Hg (1030 hPa)
ob: EHDL 152255Z AUTO 03008KT 330V070 9999 NCD 02/M02 Q1030 BLU
cycle: 23
DE KOOY:
De Kooy, Netherlands (EHKD) 52-55N 004-47E 14M
Apr 15, 2021 - 06:55 PM EDT / 2021.04.15 2255 UTC
Wind: from the NE (050 degrees) at 13 MPH (11 KT):0
Visibility: greater than 7 mile(s):0
Sky conditions: overcast
Temperature: 41 F (5 C)
Dew Point: 28 F (-2 C)
Relative Humidity: 60%
Pressure (altimeter): 30.45 in. Hg (1031 hPa)
ob: EHKD 152255Z AUTO 05011KT 9999 OVC220 05/M02 Q1031 BLU
cycle: 23
EELDE:
Groningen Airport Eelde, Netherlands (EHGG) 53-08N 006-35E 4M
Apr 15, 2021 - 06:55 PM EDT / 2021.04.15 2255 UTC
Wind: from the N (360 degrees) at 5 MPH (4 KT) (direction variable):0
Visibility: greater than 7 mile(s):0
Temperature: 37 F (3 C)
Dew Point: 32 F (0 C)
Relative Humidity: 80%
Pressure (altimeter): 30.42 in. Hg (1030 hPa)
ob: EHGG 152255Z AUTO 36004KT 330V030 9999 NCD 03/M00 Q1030
cycle: 23
EINDHOVEN:
Eindhoven, Netherlands (EHEH) 51-27N 005-25E 28M
Apr 15, 2021 - 06:55 PM EDT / 2021.04.15 2255 UTC
Wind: from the NNE (030 degrees) at 9 MPH (8 KT) (direction variable):0
Visibility: greater than 7 mile(s):0
Temperature: 35 F (2 C)
Windchill: 28 F (-2 C):1
Dew Point: 28 F (-2 C)
Relative Humidity: 74%
Pressure (altimeter): 30.42 in. Hg (1030 hPa)
ob: EHEH 152255Z AUTO 03008KT 360V060 9999 NCD 02/M02 Q1030 BLU
cycle: 23
GILZE-RIJEN:
Gilze-Rijen, Netherlands (EHGR) 51-34N 004-56E 24M
Apr 15, 2021 - 06:55 PM EDT / 2021.04.15 2255 UTC
Wind: from the NNE (020 degrees) at 5 MPH (4 KT) (direction variable):0
Visibility: greater than 7 mile(s):0
Temperature: 37 F (3 C)
Dew Point: 30 F (-1 C)
Relative Humidity: 74%
Pressure (altimeter): 30.42 in. Hg (1030 hPa)
ob: EHGR 152255Z AUTO 02004KT 320V050 9999 NCD 03/M01 Q1030 BLU
cycle: 23
LEEUWARDEN:
Leeuwarden, Netherlands (EHLW) 53-13N 005-46E 11M
Apr 15, 2021 - 06:55 PM EDT / 2021.04.15 2255 UTC
Wind: from the NNE (020 degrees) at 5 MPH (4 KT):0
Visibility: greater than 7 mile(s):0
Sky conditions: overcast
Temperature: 33 F (1 C)
Windchill: 28 F (-2 C):1
Dew Point: 30 F (-1 C)
Relative Humidity: 86%
Pressure (altimeter): 30.45 in. Hg (1031 hPa)
ob: EHLW 152255Z AUTO 02004KT 9999 OVC190 01/M01 Q1031 BLU
cycle: 23
MAASTRICHT:
Maastricht Airport Zuid Limburg, Netherlands (EHBK) 50-55N 005-47E 116M
Apr 15, 2021 - 06:55 PM EDT / 2021.04.15 2255 UTC
Wind: from the NNE (030 degrees) at 8 MPH (7 KT):0
Visibility: greater than 7 mile(s):0
Temperature: 37 F (3 C)
Dew Point: 28 F (-2 C)
Relative Humidity: 69%
Pressure (altimeter): 30.36 in. Hg (1028 hPa)
ob: EHBK 152255Z AUTO 03007KT 9999 NSC 03/M02 Q1028
cycle: 23
ROTTERDAM ZESTIENHOVEN:
Rotterdam Airport Zestienhoven, Netherlands (EHRD) 51-57N 004-27E -4M
Apr 15, 2021 - 06:55 PM EDT / 2021.04.15 2255 UTC
Wind: from the NE (040 degrees) at 5 MPH (4 KT):0
Visibility: greater than 7 mile(s):0
Temperature: 37 F (3 C)
Dew Point: 30 F (-1 C)
Relative Humidity: 74%
Pressure (altimeter): 30.45 in. Hg (1031 hPa)
ob: EHRD 152255Z AUTO 04004KT 9999 NSC 03/M01 Q1031 NOSIG
cycle: 23
SOESTERBERG:
Soesterberg, Netherlands (EHSB) 52-08N 005-17E 25M
Nov 20, 2008 - 04:25 AM EST / 2008.11.20 0925 UTC
Wind: from the W (280 degrees) at 16 MPH (14 KT):0
Visibility: greater than 7 mile(s):0
Temperature: 51 F (11 C)
Dew Point: 48 F (9 C)
Relative Humidity: 87%
Pressure (altimeter): 29.83 in. Hg (1010 hPa)
ob: EHSB 200925Z AUTO 28014KT 9999 // 11/09 Q1010
cycle: 9
TWENTE:
Twenthe, Netherlands (EHTW) 52-16N 006-54E 57M
Apr 07, 2008 - 08:25 AM EDT / 2008.04.07 1225 UTC
Wind: from the N (010 degrees) at 7 MPH (6 KT):0
Sky conditions: mostly cloudy
Temperature: 46 F (8 C)
Dew Point: 24 F (-4 C)
Relative Humidity: 42%
Pressure (altimeter): 29.59 in. Hg (1002 hPa)
ob: EHTW 071225Z AUTO 01006KT //// // BKN200/// 08/M04 Q1002 RE//
cycle: 12
VALKENBURG:
Valkenburg, Netherlands (EHVB) 52-11N 004-25E 2M
Apr 01, 2010 - 03:55 AM EDT / 2010.04.01 0755 UTC
Wind: from the WSW (250 degrees) at 20 MPH (17 KT):0
Sky conditions: mostly cloudy
Temperature: 41 F (5 C)
Dew Point: 33 F (1 C)
Relative Humidity: 75%
Pressure (altimeter): 29.62 in. Hg (1003 hPa)
ob: EHVB 010755Z AUTO 25017KT 9999NDV FEW021/// BKN037/// 05/01 Q1003 BLU
cycle: 8
VLIELAND:
Vlieland, Netherlands (EHVL) 53-15N 004-55E 12M
Apr 15, 2021 - 06:55 PM EDT / 2021.04.15 2255 UTC
Wind: from the NE (050 degrees) at 10 MPH (9 KT):0
Visibility: greater than 7 mile(s):0
Sky conditions: overcast
Temperature: 37 F (3 C)
Dew Point: 30 F (-1 C)
Relative Humidity: 74%
Pressure (altimeter): 30.47 in. Hg (1032 hPa)
ob: EHVL 152255Z AUTO 05009KT 9999 OVC240 03/M01 Q1032 BLU
cycle: 23
VOLKEL:
Volkel, Netherlands (EHVK) 51-39N 005-42E 21M
Apr 15, 2021 - 06:55 PM EDT / 2021.04.15 2255 UTC
Wind: from the NNE (020 degrees) at 6 MPH (5 KT):0
Visibility: greater than 7 mile(s):0
Temperature: 39 F (4 C)
Dew Point: 26 F (-3 C)
Relative Humidity: 60%
Pressure (altimeter): 30.42 in. Hg (1030 hPa)
ob: EHVK 152255Z AUTO 02005KT 9999 NCD 04/M03 Q1030 BLU
cycle: 23
WOENSDRECHT:
Woensdrecht, Netherlands (EHWO) 51-27N 004-20E 17M
Apr 15, 2021 - 06:55 PM EDT / 2021.04.15 2255 UTC
Wind: from the NNE (030 degrees) at 7 MPH (6 KT) (direction variable):0
Visibility: greater than 7 mile(s):0
Sky conditions: partly cloudy
Temperature: 37 F (3 C)
Dew Point: 32 F (0 C)
Relative Humidity: 80%
Pressure (altimeter): 30.42 in. Hg (1030 hPa)
ob: EHWO 152255Z AUTO 03006KT 350V050 9999 SCT320 03/M00 Q1030 BLU
cycle: 23
Copyright © 2005 - 2021 Venhuizerweer - Alle Rechten Voorbehouden


3.236.228.250